CLA6 weather

Lancaster Airpark
Bainsville, Ontario, Canada

Public forecast

Using degrees Celsius for public forecast. Weather courtesy of forecast.io.

METAR (pilot weather report)

Closest report is Massena International Richards Field, 26.0 nm (48.1 km) SW. Retrieved 2019/05/24 09:53 UTC (1 hour ago):

KMSS 240953Z AUTO 31008KT 10SM SCT019 OVC028 15/12 A2981 RMK AO2 SLP095 T01500117

TAF (pilot weather forecast)

Closest forecast is Massena International Richards Field, 26.0 nm (48.1 km) SW. Retrieved 2019/05/24 06:28 UTC (4 hours ago):

TAF KMSS 240525Z 2406/2506 25014G22KT P6SM SCT025 OVC050 FM240900 30012G20KT P6SM OVC020 FM241400 33010KT P6SM BKN025 FM242000 36007KT P6SM BKN050 FM250200 VRB03KT P6SM FEW200